createdAt,value
2017-12-06T00:00:33.309Z,73.90
2017-12-06T00:01:07.045Z,73.80
2017-12-06T00:01:41.534Z,73.80
2017-12-06T00:02:15.247Z,73.80
2017-12-06T00:02:49.735Z,73.80
2017-12-06T00:03:23.478Z,74.50
2017-12-06T00:03:57.212Z,74.40
2017-12-06T00:04:30.952Z,74.00
2017-12-06T00:05:04.896Z,73.90
2017-12-06T00:05:38.652Z,73.90
2017-12-06T00:06:12.505Z,73.80
2017-12-06T00:06:46.999Z,73.80
2017-12-06T00:07:21.499Z,73.70
2017-12-06T00:07:55.214Z,73.70
2017-12-06T00:08:30.703Z,73.40
2017-12-06T00:09:03.776Z,73.40
2017-12-06T00:09:37.495Z,73.40
2017-12-06T00:10:11.992Z,73.60
2017-12-06T00:10:45.765Z,73.60
2017-12-06T00:11:19.485Z,73.60
2017-12-06T00:11:53.025Z,73.60
2017-12-06T00:12:32.355Z,74.20
2017-12-06T00:13:11.732Z,73.60
2017-12-06T00:13:51.084Z,73.60
2017-12-06T00:14:30.352Z,73.60
2017-12-06T00:15:09.596Z,73.30
2017-12-06T00:15:44.080Z,73.40
2017-12-06T00:16:17.831Z,73.40
2017-12-06T00:16:51.556Z,73.50
2017-12-06T00:17:25.289Z,73.50
2017-12-06T00:17:59.016Z,73.50
2017-12-06T00:18:32.762Z,73.30
2017-12-06T00:19:07.268Z,73.20
2017-12-06T00:19:41.774Z,73.30
2017-12-06T00:20:16.272Z,73.40
2017-12-06T00:20:49.996Z,73.40
2017-12-06T00:21:23.750Z,73.60
2017-12-06T00:21:57.471Z,73.40
2017-12-06T00:22:31.219Z,72.90
2017-12-06T00:23:04.756Z,73.50
2017-12-06T00:23:38.301Z,73.60
2017-12-06T00:24:11.854Z,73.60
2017-12-06T00:24:45.389Z,73.30
2017-12-06T00:25:19.893Z,73.40
2017-12-06T00:25:54.418Z,73.50
2017-12-06T00:26:28.945Z,73.50
2017-12-06T00:27:02.677Z,73.50
2017-12-06T00:27:36.423Z,73.40
2017-12-06T00:28:09.970Z,73.50
2017-12-06T00:28:44.452Z,73.50
2017-12-06T00:29:18.189Z,73.60
2017-12-06T00:29:52.675Z,73.80
2017-12-06T00:30:26.383Z,73.70
2017-12-06T00:31:00.895Z,73.60
2017-12-06T00:31:35.436Z,74.40
2017-12-06T00:32:09.154Z,73.70
2017-12-06T00:32:42.992Z,73.70
2017-12-06T00:33:17.488Z,73.70
2017-12-06T00:33:51.231Z,73.70
2017-12-06T00:34:24.959Z,73.80
2017-12-06T00:34:58.675Z,73.60
2017-12-06T00:35:33.821Z,73.40
2017-12-06T00:36:07.576Z,73.40
2017-12-06T00:36:41.332Z,73.40
2017-12-06T00:37:15.070Z,73.60
2017-12-06T00:37:49.560Z,73.70
2017-12-06T00:38:23.292Z,73.60
2017-12-06T00:38:57.056Z,73.60
2017-12-06T00:39:31.553Z,73.60
2017-12-06T00:40:05.284Z,73.60
2017-12-06T00:40:39.029Z,74.20
2017-12-06T00:41:12.763Z,73.50
2017-12-06T00:41:46.516Z,73.60
2017-12-06T00:42:20.247Z,73.70
2017-12-06T00:42:53.974Z,73.60
2017-12-06T00:43:27.711Z,73.50
2017-12-06T00:44:02.221Z,73.60
2017-12-06T00:44:36.714Z,73.40
2017-12-06T00:45:11.205Z,73.70
2017-12-06T00:45:44.924Z,73.50
2017-12-06T00:46:19.423Z,73.60
2017-12-06T00:46:53.227Z,73.60
2017-12-06T00:47:27.724Z,73.30
2017-12-06T00:48:01.474Z,73.20
2017-12-06T00:48:35.225Z,73.30
2017-12-06T00:49:09.726Z,73.40
2017-12-06T00:49:44.224Z,73.40
2017-12-06T00:50:17.957Z,73.30
2017-12-06T00:50:51.684Z,73.60
2017-12-06T00:51:26.194Z,73.30
2017-12-06T00:51:59.974Z,73.30
2017-12-06T00:52:33.708Z,73.20
2017-12-06T00:53:08.321Z,73.20
2017-12-06T00:53:42.820Z,73.40
2017-12-06T00:54:17.321Z,73.40
2017-12-06T00:54:52.581Z,73.40
2017-12-06T00:55:26.304Z,73.40
2017-12-06T00:56:00.035Z,73.30
2017-12-06T00:56:33.760Z,73.50
2017-12-06T00:57:07.508Z,73.40
2017-12-06T00:57:41.243Z,73.50
2017-12-06T00:58:14.988Z,73.50
2017-12-06T00:58:48.726Z,73.60
2017-12-06T00:59:22.443Z,73.70
2017-12-06T00:59:56.167Z,73.90
2017-12-06T01:00:29.892Z,73.80
2017-12-06T01:01:03.603Z,73.40
2017-12-06T01:01:37.324Z,73.80
2017-12-06T01:02:11.074Z,73.80
2017-12-06T01:02:44.793Z,73.70
2017-12-06T01:03:18.525Z,73.90
2017-12-06T01:03:53.035Z,73.90
2017-12-06T01:04:27.534Z,73.70
2017-12-06T01:05:02.044Z,73.70
2017-12-06T01:05:35.780Z,73.70
2017-12-06T01:06:09.531Z,73.50
2017-12-06T01:06:44.033Z,73.50
2017-12-06T01:07:18.563Z,73.60
2017-12-06T01:07:52.309Z,73.60
2017-12-06T01:08:26.036Z,73.80
2017-12-06T01:09:00.526Z,73.80
2017-12-06T01:09:35.765Z,73.80
2017-12-06T01:10:10.260Z,73.90
2017-12-06T01:10:44.000Z,73.90
2017-12-06T01:11:17.725Z,74.00
2017-12-06T01:11:51.715Z,74.10
2017-12-06T01:12:25.506Z,73.80
2017-12-06T01:12:59.241Z,73.80
2017-12-06T01:13:33.738Z,74.00
2017-12-06T01:14:07.464Z,74.00
2017-12-06T01:14:41.188Z,74.00
2017-12-06T01:15:14.916Z,74.00
2017-12-06T01:15:49.417Z,74.00
2017-12-06T01:16:23.134Z,74.00
2017-12-06T01:16:56.847Z,74.10
2017-12-06T01:17:30.608Z,74.00
2017-12-06T01:18:05.094Z,74.20
2017-12-06T01:18:38.829Z,74.20
2017-12-06T01:19:12.555Z,74.70
2017-12-06T01:19:46.286Z,74.00
2017-12-06T01:20:20.780Z,74.00
2017-12-06T01:20:55.273Z,74.10
2017-12-06T01:21:28.993Z,74.00
2017-12-06T01:22:03.500Z,74.00
2017-12-06T01:22:38.023Z,74.10
2017-12-06T01:23:11.752Z,74.00
2017-12-06T01:23:45.480Z,74.10
2017-12-06T01:24:19.234Z,74.00
2017-12-06T01:24:52.956Z,74.10
2017-12-06T01:25:26.684Z,74.10
2017-12-06T01:26:00.406Z,75.10
2017-12-06T01:26:34.132Z,74.30
2017-12-06T01:27:08.659Z,74.10
2017-12-06T01:27:43.189Z,74.00
2017-12-06T01:28:16.941Z,74.00
2017-12-06T01:28:50.668Z,74.00
2017-12-06T01:29:24.388Z,74.70
2017-12-06T01:29:58.128Z,74.20
2017-12-06T01:30:32.621Z,74.20
2017-12-06T01:31:06.347Z,74.20
2017-12-06T01:31:40.071Z,74.10
2017-12-06T01:32:13.804Z,74.10
2017-12-06T01:32:48.314Z,74.10
2017-12-06T01:33:22.837Z,74.00
2017-12-06T01:33:56.569Z,74.00
2017-12-06T01:34:30.313Z,74.00
2017-12-06T01:35:04.614Z,74.00
2017-12-06T01:35:39.121Z,74.10
2017-12-06T01:36:13.614Z,74.10
2017-12-06T01:36:47.350Z,74.00
2017-12-06T01:37:20.892Z,74.10
2017-12-06T01:37:54.661Z,74.10
2017-12-06T01:38:28.393Z,74.30
2017-12-06T01:39:02.720Z,74.20
2017-12-06T01:39:36.453Z,74.20
2017-12-06T01:40:10.187Z,74.10
2017-12-06T01:40:44.668Z,74.20
2017-12-06T01:41:18.386Z,74.20
2017-12-06T01:41:52.116Z,74.30
2017-12-06T01:42:25.513Z,74.30
2017-12-06T01:42:59.270Z,74.30
2017-12-06T01:43:32.996Z,74.30
2017-12-06T01:44:06.724Z,74.30
2017-12-06T01:44:41.200Z,74.50
2017-12-06T01:45:14.931Z,74.50
2017-12-06T01:45:48.649Z,74.50
2017-12-06T01:46:22.594Z,74.60
2017-12-06T01:46:56.141Z,74.70
2017-12-06T01:47:29.871Z,74.70
2017-12-06T01:48:03.635Z,74.80
2017-12-06T01:48:37.352Z,74.90
2017-12-06T01:49:10.752Z,74.70
2017-12-06T01:49:45.239Z,74.90
2017-12-06T01:50:18.763Z,74.90
2017-12-06T01:50:52.292Z,74.90
2017-12-06T01:51:26.052Z,74.80
2017-12-06T01:51:59.944Z,74.80
2017-12-06T01:52:33.512Z,74.90
2017-12-06T01:53:08.038Z,74.90
2017-12-06T01:53:41.772Z,74.90
2017-12-06T01:54:15.502Z,74.90
2017-12-06T01:54:49.256Z,74.80
2017-12-06T01:55:22.652Z,74.80
2017-12-06T01:55:56.041Z,74.80
2017-12-06T01:56:29.454Z,74.90
2017-12-06T01:57:02.341Z,74.90
2017-12-06T01:57:36.064Z,74.90
2017-12-06T01:58:09.176Z,74.80
2017-12-06T01:58:43.340Z,74.90
2017-12-06T01:59:16.886Z,74.90
2017-12-06T01:59:50.620Z,74.90
2017-12-06T02:00:24.349Z,74.90
2017-12-06T02:00:58.843Z,75.10
2017-12-06T02:01:32.561Z,75.10
2017-12-06T02:02:06.277Z,75.00
2017-12-06T02:02:40.001Z,75.00
2017-12-06T02:03:15.269Z,75.00
2017-12-06T02:03:49.005Z,75.00
2017-12-06T02:04:23.338Z,75.00
2017-12-06T02:04:57.840Z,75.20
2017-12-06T02:05:31.391Z,75.20
2017-12-06T02:06:05.118Z,75.10
2017-12-06T02:06:38.926Z,75.10
2017-12-06T02:07:13.128Z,75.10
2017-12-06T02:07:47.653Z,75.20
2017-12-06T02:08:21.413Z,75.10
2017-12-06T02:08:55.141Z,75.20
2017-12-06T02:09:28.855Z,75.20
2017-12-06T02:10:02.576Z,75.10
2017-12-06T02:10:37.076Z,75.20
2017-12-06T02:11:10.811Z,75.20
2017-12-06T02:11:44.205Z,75.20
2017-12-06T02:12:17.618Z,75.20
2017-12-06T02:12:51.029Z,75.00
2017-12-06T02:13:24.796Z,75.00
2017-12-06T02:13:58.184Z,75.10
2017-12-06T02:14:31.937Z,75.00
2017-12-06T02:15:05.005Z,75.00
2017-12-06T02:15:38.720Z,74.90
2017-12-06T02:16:12.448Z,75.20
2017-12-06T02:16:46.176Z,75.10
2017-12-06T02:17:20.020Z,75.10
2017-12-06T02:17:53.759Z,75.10
2017-12-06T02:18:27.517Z,75.20
2017-12-06T02:19:01.267Z,75.20
2017-12-06T02:19:34.677Z,75.20
2017-12-06T02:20:08.430Z,75.30
2017-12-06T02:20:41.710Z,75.20
2017-12-06T02:21:14.812Z,75.20
2017-12-06T02:21:48.388Z,75.20
2017-12-06T02:22:21.440Z,75.20
2017-12-06T02:22:54.508Z,75.30
2017-12-06T02:23:28.710Z,75.00
2017-12-06T02:24:01.879Z,75.10
2017-12-06T02:24:36.296Z,75.00
2017-12-06T02:25:09.360Z,75.00
2017-12-06T02:25:43.201Z,74.80
2017-12-06T02:26:16.618Z,74.80
2017-12-06T02:26:49.684Z,74.90
2017-12-06T02:27:23.072Z,75.00
2017-12-06T02:27:56.129Z,75.10
2017-12-06T02:28:30.765Z,75.30
2017-12-06T02:29:04.202Z,75.30
2017-12-06T02:29:37.411Z,75.30
2017-12-06T02:30:10.477Z,75.30
2017-12-06T02:30:44.203Z,75.40
2017-12-06T02:31:18.696Z,75.40
2017-12-06T02:31:52.427Z,75.30
2017-12-06T02:32:25.493Z,75.30
2017-12-06T02:32:59.979Z,75.20
2017-12-06T02:33:34.512Z,75.20
2017-12-06T02:34:08.295Z,75.20
2017-12-06T02:34:42.772Z,75.20
2017-12-06T02:35:16.193Z,75.10
2017-12-06T02:35:50.519Z,74.90
2017-12-06T02:36:24.465Z,74.90
2017-12-06T02:36:58.247Z,75.00
2017-12-06T02:37:32.922Z,75.10
2017-12-06T02:38:06.651Z,75.10
2017-12-06T02:38:40.402Z,75.10
2017-12-06T02:39:13.920Z,75.10
2017-12-06T02:39:58.886Z,75.20
2017-12-06T02:40:43.840Z,75.10
2017-12-06T02:41:28.781Z,75.00
2017-12-06T02:42:24.483Z,75.00
2017-12-06T02:43:09.488Z,75.10
2017-12-06T02:43:55.193Z,75.10
2017-12-06T02:44:40.112Z,75.10
2017-12-06T02:45:25.480Z,75.30
2017-12-06T02:45:59.636Z,75.20
2017-12-06T02:46:33.362Z,75.20
2017-12-06T02:47:07.856Z,75.20
2017-12-06T02:47:41.592Z,75.20
2017-12-06T02:48:14.665Z,75.40
2017-12-06T02:48:48.059Z,75.20
2017-12-06T02:49:21.816Z,75.10
2017-12-06T02:49:56.005Z,75.00
2017-12-06T02:50:30.174Z,75.10
2017-12-06T02:51:03.601Z,75.00
2017-12-06T02:51:38.098Z,75.00
2017-12-06T02:52:12.587Z,75.10
2017-12-06T02:52:46.317Z,75.10
2017-12-06T02:53:20.818Z,75.70
2017-12-06T02:53:55.303Z,75.10
2017-12-06T02:54:29.045Z,75.10
2017-12-06T02:55:02.759Z,75.00
2017-12-06T02:55:35.816Z,74.90
2017-12-06T02:56:09.216Z,75.00
2017-12-06T02:56:42.943Z,74.90
2017-12-06T02:57:16.337Z,74.80
2017-12-06T02:57:50.178Z,75.00
2017-12-06T02:58:23.243Z,75.00
2017-12-06T02:58:56.959Z,75.00
2017-12-06T02:59:30.717Z,74.90
2017-12-06T03:00:03.797Z,74.90
2017-12-06T03:00:37.516Z,74.90
2017-12-06T03:01:11.248Z,74.90
2017-12-06T03:01:45.754Z,74.90
2017-12-06T03:02:20.236Z,74.90
2017-12-06T03:02:53.967Z,74.90
2017-12-06T03:03:27.693Z,75.50
2017-12-06T03:04:01.412Z,74.80
2017-12-06T03:04:34.853Z,74.70
2017-12-06T03:05:08.589Z,74.90
2017-12-06T03:05:43.087Z,75.00
2017-12-06T03:06:16.497Z,74.90
2017-12-06T03:06:50.656Z,74.70
2017-12-06T03:07:24.389Z,74.70
2017-12-06T03:07:58.867Z,74.60
2017-12-06T03:08:32.593Z,74.60
2017-12-06T03:09:07.079Z,74.70
2017-12-06T03:09:40.829Z,74.70
2017-12-06T03:10:14.569Z,74.70
2017-12-06T03:10:48.294Z,74.70
2017-12-06T03:11:22.024Z,74.80
2017-12-06T03:11:55.756Z,74.80
2017-12-06T03:12:30.252Z,74.90
2017-12-06T03:13:04.421Z,75.10
2017-12-06T03:13:38.373Z,75.00
2017-12-06T03:14:12.117Z,75.00
2017-12-06T03:14:45.878Z,74.90
2017-12-06T03:15:19.603Z,74.90
2017-12-06T03:15:53.353Z,74.90
2017-12-06T03:16:27.092Z,74.80
2017-12-06T03:17:00.842Z,75.00
2017-12-06T03:17:34.580Z,75.00
2017-12-06T03:18:08.317Z,75.00
2017-12-06T03:18:42.045Z,75.00
2017-12-06T03:19:15.776Z,75.00
2017-12-06T03:19:50.311Z,75.20
2017-12-06T03:20:24.042Z,75.20
2017-12-06T03:20:57.776Z,75.00
2017-12-06T03:21:31.500Z,75.10
2017-12-06T03:22:05.249Z,75.10
2017-12-06T03:22:39.752Z,75.10
2017-12-06T03:23:14.270Z,75.20
2017-12-06T03:23:48.760Z,75.20
2017-12-06T03:24:22.486Z,75.20
2017-12-06T03:24:56.254Z,75.30
2017-12-06T03:25:30.741Z,75.30
2017-12-06T03:26:04.132Z,75.30
2017-12-06T03:26:37.861Z,75.20
2017-12-06T03:27:11.588Z,75.40
2017-12-06T03:27:45.343Z,75.30
2017-12-06T03:28:19.057Z,75.40
2017-12-06T03:28:52.810Z,75.50
2017-12-06T03:29:26.536Z,75.50
2017-12-06T03:30:00.315Z,75.60
2017-12-06T03:30:34.057Z,75.70
2017-12-06T03:31:07.796Z,75.70
2017-12-06T03:31:41.906Z,75.70
2017-12-06T03:32:14.989Z,75.70
2017-12-06T03:32:48.923Z,75.70
2017-12-06T03:33:22.649Z,75.80
2017-12-06T03:33:56.383Z,75.90
2017-12-06T03:34:30.107Z,75.90
2017-12-06T03:35:04.631Z,75.90
2017-12-06T03:35:38.352Z,75.80
2017-12-06T03:36:12.063Z,75.90
2017-12-06T03:36:45.797Z,76.10
2017-12-06T03:37:20.294Z,76.00
2017-12-06T03:37:54.792Z,76.00
2017-12-06T03:38:28.723Z,76.00
2017-12-06T03:39:02.272Z,76.00
2017-12-06T03:39:36.001Z,76.10
2017-12-06T03:40:09.747Z,76.10
2017-12-06T03:40:44.987Z,76.10
2017-12-06T03:41:18.712Z,76.10
2017-12-06T03:41:52.434Z,76.00
2017-12-06T03:42:26.165Z,75.80
2017-12-06T03:43:00.681Z,76.00
2017-12-06T03:43:35.186Z,75.90
2017-12-06T03:44:09.685Z,75.90
2017-12-06T03:44:43.419Z,75.90
2017-12-06T03:45:17.207Z,76.10
2017-12-06T03:45:50.940Z,76.00
2017-12-06T03:46:24.683Z,76.00
2017-12-06T03:46:58.405Z,76.00
2017-12-06T03:47:32.126Z,76.00
2017-12-06T03:48:05.844Z,76.00
2017-12-06T03:48:39.568Z,76.00
2017-12-06T03:49:13.283Z,76.20
2017-12-06T03:49:47.004Z,76.20
2017-12-06T03:50:21.530Z,76.20
2017-12-06T03:50:55.260Z,76.20
2017-12-06T03:51:28.988Z,76.00
2017-12-06T03:52:03.499Z,76.00
2017-12-06T03:52:37.667Z,76.20
2017-12-06T03:53:11.399Z,76.10
2017-12-06T03:53:45.892Z,76.80
2017-12-06T03:54:20.380Z,76.20
2017-12-06T03:54:54.305Z,76.20
2017-12-06T03:55:28.921Z,76.40
2017-12-06T03:56:03.416Z,76.40
2017-12-06T03:56:37.927Z,76.30
2017-12-06T03:57:12.436Z,76.50
2017-12-06T03:57:46.932Z,76.50
2017-12-06T03:58:20.468Z,76.50
2017-12-06T03:58:53.997Z,76.40
2017-12-06T03:59:27.551Z,76.60
2017-12-06T04:00:01.080Z,76.60
2017-12-06T04:00:34.828Z,76.70
2017-12-06T04:01:08.565Z,76.80
2017-12-06T04:01:43.060Z,77.30
2017-12-06T04:02:16.794Z,77.00
2017-12-06T04:02:50.516Z,77.00
2017-12-06T04:03:24.232Z,77.20
2017-12-06T04:03:57.951Z,77.30
2017-12-06T04:04:32.469Z,77.60
2017-12-06T04:05:06.959Z,77.60
2017-12-06T04:05:40.720Z,77.60
2017-12-06T04:06:14.451Z,77.60
2017-12-06T04:06:48.957Z,77.80
2017-12-06T04:07:23.438Z,77.80
2017-12-06T04:07:57.160Z,77.90
2017-12-06T04:08:31.667Z,77.90
2017-12-06T04:09:06.155Z,78.00
2017-12-06T04:09:39.882Z,78.00
2017-12-06T04:10:14.371Z,78.00
2017-12-06T04:10:48.881Z,78.10
2017-12-06T04:11:23.296Z,78.80
2017-12-06T04:11:57.779Z,78.20
2017-12-06T04:12:31.509Z,78.20
2017-12-06T04:13:05.239Z,78.20
2017-12-06T04:13:38.959Z,78.10
2017-12-06T04:14:12.693Z,78.10
2017-12-06T04:14:46.416Z,78.10
2017-12-06T04:15:20.154Z,78.20
2017-12-06T04:15:54.693Z,78.30
2017-12-06T04:16:28.240Z,78.30
2017-12-06T04:17:02.740Z,78.50
2017-12-06T04:17:36.494Z,78.50
2017-12-06T04:18:10.223Z,78.50
2017-12-06T04:18:43.952Z,78.50
2017-12-06T04:19:17.509Z,78.50
2017-12-06T04:19:52.005Z,78.40
2017-12-06T04:20:25.737Z,78.40
2017-12-06T04:20:59.500Z,77.70
2017-12-06T04:21:33.992Z,77.90
2017-12-06T04:22:07.716Z,77.90
2017-12-06T04:22:41.444Z,77.80
2017-12-06T04:23:15.183Z,77.80
2017-12-06T04:23:49.690Z,77.60
2017-12-06T04:24:24.181Z,77.60
2017-12-06T04:24:57.922Z,77.60
2017-12-06T04:25:31.649Z,77.50
2017-12-06T04:26:05.442Z,77.60
2017-12-06T04:26:39.171Z,77.60
2017-12-06T04:27:13.665Z,77.50
2017-12-06T04:27:47.405Z,77.50
2017-12-06T04:28:21.134Z,77.30
2017-12-06T04:28:54.926Z,77.20
2017-12-06T04:29:28.655Z,77.00
2017-12-06T04:30:03.152Z,76.70
2017-12-06T04:30:37.641Z,76.80
2017-12-06T04:31:11.405Z,76.80
2017-12-06T04:31:45.128Z,76.50
2017-12-06T04:32:18.881Z,76.50
2017-12-06T04:32:52.595Z,76.40
2017-12-06T04:33:26.317Z,76.30
2017-12-06T04:34:00.068Z,76.20
2017-12-06T04:34:33.809Z,76.20
2017-12-06T04:35:07.537Z,76.20
2017-12-06T04:35:41.117Z,76.10
2017-12-06T04:36:14.890Z,75.90
2017-12-06T04:36:48.675Z,75.90
2017-12-06T04:37:22.397Z,75.90
2017-12-06T04:37:56.228Z,75.80
2017-12-06T04:38:29.634Z,76.00
2017-12-06T04:39:03.461Z,76.20
2017-12-06T04:39:37.192Z,76.20
2017-12-06T04:40:10.325Z,76.10
2017-12-06T04:40:43.728Z,76.00
2017-12-06T04:41:17.498Z,76.00
2017-12-06T04:41:51.216Z,76.10
2017-12-06T04:42:24.952Z,76.10
2017-12-06T04:42:58.693Z,76.20
2017-12-06T04:43:32.412Z,76.30
2017-12-06T04:44:05.831Z,76.40
2017-12-06T04:44:39.565Z,76.60
2017-12-06T04:45:14.326Z,76.60
2017-12-06T04:45:48.825Z,76.80
2017-12-06T04:46:23.062Z,76.90
2017-12-06T04:46:56.459Z,76.90
2017-12-06T04:47:30.847Z,76.70
2017-12-06T04:48:04.583Z,76.70
2017-12-06T04:48:38.121Z,76.70
2017-12-06T04:49:11.513Z,76.90
2017-12-06T04:49:45.244Z,76.80
2017-12-06T04:50:18.985Z,76.80
2017-12-06T04:50:52.721Z,76.60
2017-12-06T04:51:26.483Z,76.60
2017-12-06T04:52:00.207Z,76.60
2017-12-06T04:52:33.941Z,76.70
2017-12-06T04:53:07.665Z,76.70
2017-12-06T04:53:41.435Z,76.60
2017-12-06T04:54:15.155Z,76.60
2017-12-06T04:54:48.990Z,76.70
2017-12-06T04:55:23.496Z,76.80
2017-12-06T04:55:57.988Z,76.80
2017-12-06T04:56:31.749Z,76.80
2017-12-06T04:57:05.488Z,76.90
2017-12-06T04:57:39.976Z,76.80
2017-12-06T04:58:13.707Z,76.80
2017-12-06T04:58:47.440Z,76.90
2017-12-06T04:59:21.152Z,77.00
2017-12-06T04:59:54.892Z,77.10
2017-12-06T05:00:28.630Z,77.00
2017-12-06T05:01:03.168Z,77.20
2017-12-06T05:01:37.698Z,77.10
2017-12-06T05:02:11.472Z,77.10
2017-12-06T05:02:45.202Z,77.00
2017-12-06T05:03:19.545Z,77.00
2017-12-06T05:03:53.263Z,77.00
2017-12-06T05:04:26.996Z,77.00
2017-12-06T05:05:00.832Z,77.00
2017-12-06T05:05:35.348Z,77.10
2017-12-06T05:06:09.849Z,77.20
2017-12-06T05:06:44.387Z,77.10
2017-12-06T05:07:18.121Z,77.10
2017-12-06T05:07:51.840Z,77.20
2017-12-06T05:08:26.346Z,77.60
2017-12-06T05:09:00.857Z,77.60
2017-12-06T05:09:35.370Z,77.70
2017-12-06T05:10:09.871Z,77.70
2017-12-06T05:10:44.368Z,77.70
2017-12-06T05:11:18.088Z,77.60
2017-12-06T05:11:52.600Z,77.70
2017-12-06T05:12:26.339Z,77.70
2017-12-06T05:13:00.068Z,77.70
2017-12-06T05:13:34.571Z,77.80
2017-12-06T05:14:08.317Z,77.80
2017-12-06T05:14:42.056Z,77.80
2017-12-06T05:15:16.562Z,77.90
2017-12-06T05:15:51.062Z,77.90
2017-12-06T05:16:24.801Z,77.90
2017-12-06T05:16:58.556Z,77.90
2017-12-06T05:17:33.068Z,77.80
2017-12-06T05:18:07.576Z,78.00
2017-12-06T05:18:42.084Z,77.90
2017-12-06T05:19:16.588Z,78.00
2017-12-06T05:19:51.081Z,78.10
2017-12-06T05:20:24.822Z,78.10
2017-12-06T05:20:58.609Z,78.20
2017-12-06T05:21:32.352Z,78.20
2017-12-06T05:22:06.135Z,78.40
2017-12-06T05:22:39.530Z,78.30
2017-12-06T05:23:13.265Z,78.20
2017-12-06T05:23:46.996Z,78.10
2017-12-06T05:24:20.736Z,78.10
2017-12-06T05:24:54.467Z,78.10
2017-12-06T05:25:28.200Z,78.10
2017-12-06T05:26:02.715Z,78.20
2017-12-06T05:26:37.281Z,78.20
2017-12-06T05:27:11.220Z,78.20
2017-12-06T05:27:45.726Z,78.10
2017-12-06T05:29:08.584Z,78.00
2017-12-06T05:29:43.078Z,78.20
2017-12-06T05:30:18.398Z,78.40
2017-12-06T05:30:52.137Z,78.40
2017-12-06T05:31:25.893Z,78.50
2017-12-06T05:32:00.389Z,78.10
2017-12-06T05:32:35.649Z,78.10
2017-12-06T05:33:09.595Z,78.00
2017-12-06T05:33:43.416Z,77.90
2017-12-06T05:34:17.629Z,77.80
2017-12-06T05:34:51.418Z,77.80
2017-12-06T05:35:26.142Z,77.30
2017-12-06T05:36:00.636Z,77.00
2017-12-06T05:36:35.720Z,76.70
2017-12-06T05:37:09.434Z,76.80
2017-12-06T05:37:43.166Z,76.80
2017-12-06T05:38:16.928Z,76.80
2017-12-06T05:38:51.420Z,76.80
2017-12-06T05:39:25.170Z,76.80
2017-12-06T05:39:58.918Z,76.70
2017-12-06T05:40:33.415Z,76.50
2017-12-06T05:41:07.148Z,76.50
2017-12-06T05:41:40.906Z,76.50
2017-12-06T05:42:15.416Z,76.40
2017-12-06T05:42:50.032Z,76.40
2017-12-06T05:43:24.543Z,76.30
2017-12-06T05:43:59.048Z,76.00
2017-12-06T05:44:33.553Z,76.00
2017-12-06T05:45:07.288Z,76.00
2017-12-06T05:45:41.020Z,76.10
2017-12-06T05:46:14.767Z,76.10
2017-12-06T05:46:48.547Z,75.90
2017-12-06T05:47:22.284Z,75.70
2017-12-06T05:47:56.060Z,75.60
2017-12-06T05:48:29.868Z,75.70
2017-12-06T05:49:03.613Z,75.70
2017-12-06T05:49:37.355Z,75.60
2017-12-06T05:50:11.097Z,75.60
2017-12-06T05:50:44.827Z,75.70
2017-12-06T05:51:18.562Z,75.80
2017-12-06T05:51:53.064Z,75.70
2017-12-06T05:52:27.777Z,75.70
2017-12-06T05:53:02.295Z,75.80
2017-12-06T05:53:36.776Z,75.70
2017-12-06T05:54:10.492Z,75.70
2017-12-06T05:54:44.989Z,75.80
2017-12-06T05:55:19.488Z,75.90
2017-12-06T05:55:53.215Z,75.90
2017-12-06T05:56:26.954Z,75.90
2017-12-06T05:57:00.685Z,75.80
2017-12-06T05:57:35.184Z,75.80
2017-12-06T05:58:09.718Z,76.50
2017-12-06T05:58:43.444Z,75.90
2017-12-06T05:59:17.190Z,75.90
2017-12-06T05:59:50.919Z,75.60
2017-12-06T06:00:24.655Z,75.20
2017-12-06T06:00:59.144Z,75.40
2017-12-06T06:01:32.880Z,76.00
2017-12-06T06:02:06.604Z,75.40
2017-12-06T06:02:40.324Z,75.50
2017-12-06T06:03:14.086Z,75.60
2017-12-06T06:03:47.828Z,75.80
2017-12-06T06:04:22.331Z,75.60
2017-12-06T06:04:56.860Z,75.70
2017-12-06T06:05:30.605Z,75.70
2017-12-06T06:06:04.342Z,75.60
2017-12-06T06:06:38.111Z,75.50
2017-12-06T06:07:12.609Z,75.40
2017-12-06T06:07:47.112Z,75.40
2017-12-06T06:08:20.865Z,75.40
2017-12-06T06:08:54.600Z,75.50
2017-12-06T06:09:28.336Z,75.40
2017-12-06T06:10:02.055Z,75.90
2017-12-06T06:10:35.787Z,75.50
2017-12-06T06:11:10.281Z,75.50
2017-12-06T06:11:44.012Z,75.50
2017-12-06T06:12:17.761Z,75.60
2017-12-06T06:12:52.266Z,75.40
2017-12-06T06:13:26.095Z,75.40
2017-12-06T06:13:59.966Z,75.80
2017-12-06T06:14:34.465Z,76.30
2017-12-06T06:15:08.968Z,75.80
2017-12-06T06:15:42.700Z,75.80
2017-12-06T06:16:16.437Z,75.80
2017-12-06T06:16:50.214Z,75.80
2017-12-06T06:17:23.941Z,76.00
2017-12-06T06:17:57.664Z,76.10
2017-12-06T06:18:31.417Z,76.20
2017-12-06T06:19:05.154Z,76.10
2017-12-06T06:19:38.890Z,76.10
2017-12-06T06:20:12.635Z,76.10
2017-12-06T06:20:46.351Z,76.10
2017-12-06T06:21:20.086Z,76.20
2017-12-06T06:21:54.701Z,76.30
2017-12-06T06:22:29.194Z,76.40
2017-12-06T06:23:02.955Z,76.40
2017-12-06T06:23:36.900Z,76.40
2017-12-06T06:24:11.392Z,76.40
2017-12-06T06:24:46.023Z,76.40
2017-12-06T06:25:20.633Z,76.30
2017-12-06T06:25:55.339Z,76.50
2017-12-06T06:26:29.833Z,76.40
2017-12-06T06:27:03.584Z,76.40
2017-12-06T06:27:37.329Z,76.40
2017-12-06T06:28:11.842Z,76.50
2017-12-06T06:28:46.351Z,76.70
2017-12-06T06:29:20.868Z,76.60
2017-12-06T06:29:55.373Z,76.70
2017-12-06T06:30:29.879Z,76.80
2017-12-06T06:31:04.372Z,76.70
2017-12-06T06:31:38.120Z,76.70
2017-12-06T06:32:11.871Z,76.50
2017-12-06T06:32:46.368Z,76.40
2017-12-06T06:33:20.096Z,76.40
2017-12-06T06:33:53.831Z,76.50
2017-12-06T06:34:27.563Z,76.50
2017-12-06T06:35:01.295Z,76.40
2017-12-06T06:35:35.029Z,76.50
2017-12-06T06:36:08.756Z,76.60
2017-12-06T06:36:42.538Z,76.70
2017-12-06T06:37:16.277Z,76.70
2017-12-06T06:37:50.015Z,76.70
2017-12-06T06:38:23.737Z,76.80
2017-12-06T06:38:57.522Z,76.70
2017-12-06T06:39:31.276Z,76.80
2017-12-06T06:40:05.765Z,76.70
2017-12-06T06:40:39.507Z,76.70
2017-12-06T06:41:13.259Z,76.80
2017-12-06T06:41:47.793Z,76.90
2017-12-06T06:42:21.533Z,76.80
2017-12-06T06:42:55.276Z,76.90
2017-12-06T06:43:30.175Z,76.80
2017-12-06T06:44:04.725Z,76.80
2017-12-06T06:44:38.464Z,76.80
2017-12-06T06:45:12.005Z,76.80
2017-12-06T06:45:45.948Z,76.80
2017-12-06T06:46:20.440Z,76.90
2017-12-06T06:46:55.673Z,76.70
2017-12-06T06:47:29.404Z,76.60
2017-12-06T06:48:06.030Z,76.70
2017-12-06T06:48:40.528Z,77.00
2017-12-06T06:49:14.303Z,76.90
2017-12-06T06:49:48.060Z,76.90
2017-12-06T06:50:21.488Z,76.90
2017-12-06T06:50:55.222Z,76.90
2017-12-06T06:51:28.968Z,76.80
2017-12-06T06:52:02.699Z,76.90
2017-12-06T06:52:37.202Z,76.60
2017-12-06T06:53:11.853Z,76.40
2017-12-06T06:53:45.602Z,76.40
2017-12-06T06:54:19.805Z,76.40
2017-12-06T06:54:54.480Z,76.40
2017-12-06T06:55:28.210Z,76.50
2017-12-06T06:56:02.716Z,76.60
2017-12-06T06:56:40.376Z,76.60
2017-12-06T06:57:14.887Z,76.60
2017-12-06T06:57:48.628Z,76.70
2017-12-06T06:58:22.390Z,76.70
2017-12-06T06:58:56.913Z,76.80
2017-12-06T06:59:31.213Z,76.80
2017-12-06T07:00:05.705Z,76.80
2017-12-06T07:00:40.609Z,76.90
2017-12-06T07:01:14.328Z,76.90
2017-12-06T07:01:48.258Z,76.90
2017-12-06T07:02:22.013Z,77.00
2017-12-06T07:02:56.504Z,77.00
2017-12-06T07:03:30.237Z,77.10
2017-12-06T07:04:03.740Z,77.10
2017-12-06T07:04:38.612Z,77.10
2017-12-06T07:05:13.124Z,77.10
2017-12-06T07:05:47.621Z,77.00
2017-12-06T07:06:21.344Z,77.60
2017-12-06T07:06:55.076Z,77.10
2017-12-06T07:07:28.806Z,77.10
2017-12-06T07:08:03.301Z,77.20
2017-12-06T07:08:37.603Z,77.30
2017-12-06T07:09:12.167Z,77.70
2017-12-06T07:09:45.940Z,77.40
2017-12-06T07:10:19.675Z,77.50
2017-12-06T07:10:53.398Z,77.50
2017-12-06T07:11:27.906Z,77.60
2017-12-06T07:12:03.128Z,77.60
2017-12-06T07:12:37.622Z,77.50
2017-12-06T07:13:11.357Z,77.50
2017-12-06T07:13:45.085Z,77.60
2017-12-06T07:14:18.916Z,77.60
2017-12-06T07:14:53.464Z,77.70
2017-12-06T07:15:27.227Z,77.70
2017-12-06T07:16:00.979Z,77.70
2017-12-06T07:16:34.705Z,77.70
2017-12-06T07:17:09.261Z,78.00
2017-12-06T07:17:43.104Z,78.00
2017-12-06T07:18:23.247Z,78.10
2017-12-06T07:18:57.776Z,78.20
2017-12-06T07:19:37.049Z,78.30
2017-12-06T07:20:10.838Z,78.20
2017-12-06T07:20:44.561Z,78.20